»·PEaware :: CGVZB CYBD-CYXY

CGVZB :: CYBD-CYXY

FLIGHT INFORMATION

Flight Status: Arrived
Operator: Unknown
More flights by this operator :: More flights under this callsign
Pilot: Alan S. (10569)
Aircraft: BOEING 737-200
(B732)
More flights by this aircraft type
Origin: CYBD Bella Coola
Canada
Destination: CYXY Whitehorse Intl
Canada
More flights between these airports :: More routes between these airports
Route: VFR PRYCE J502 ANN V317 SSR V428 YXY
File this flight plan on PilotEdge
Remarks: Nothing to remark
Altitude:
(Current/Filed)
25,000ft
Speed:
(Current/Filed)
460kts
Departed: 07-Jan-18 07:21 PM
Arrived: 07-Jan-18 09:29 PM
Distance/Time
Traveled:
572nm/2:07
Distance/Time
To Go:
Arrived

Flight Plot

Page will automatically refresh every two minutes.

Flight plan parsing failed; only flown route is shown


Map Options




Map Legend


Flown Route
Filed Route
Departure Airport
Arrival Airport
Navaid (VOR, NDB)
Fix

Horizontal Profiles

Position Reports

Time Latitude Longitude Heading Altitude Ground
Speed
07-Jan-18 19:09 52.388114 -126.587583 171 141ft 0kts
07-Jan-18 19:10 52.388114 -126.587583 171 141ft 0kts
07-Jan-18 19:11 52.388114 -126.587583 171 141ft 0kts
07-Jan-18 19:12 52.388114 -126.587583 171 141ft 0kts
07-Jan-18 19:13 52.388114 -126.587583 171 141ft 0kts
07-Jan-18 19:14 52.388114 -126.587583 171 141ft 0kts
07-Jan-18 19:15 52.388114 -126.587583 171 141ft 0kts
07-Jan-18 19:16 52.388114 -126.587583 171 141ft 0kts
07-Jan-18 19:17 52.388114 -126.587583 171 141ft 0kts
07-Jan-18 19:18 52.388114 -126.587583 171 141ft 0kts
07-Jan-18 19:19 52.388114 -126.587583 171 141ft 0kts
07-Jan-18 19:20 52.388114 -126.587583 171 141ft 0kts
07-Jan-18 19:21 52.388113 -126.587583 169 141ft 0kts
07-Jan-18 19:22 52.388172 -126.587399 339 141ft 0kts
07-Jan-18 19:23 52.388507 -126.587677 335 141ft 5kts
07-Jan-18 19:24 52.389011 -126.588116 307 141ft 9kts
07-Jan-18 19:25 52.387292 -126.596781 250 129ft 28kts
07-Jan-18 19:26 52.385635 -126.604387 142 123ft 3kts
07-Jan-18 19:27 52.386277 -126.601413 70 125ft 66kts
07-Jan-18 19:28 52.398064 -126.543357 85 1716ft 161kts
07-Jan-18 19:29 52.415631 -126.469214 3 2583ft 251kts
07-Jan-18 19:30 52.464726 -126.557437 337 2651ft 295kts
07-Jan-18 19:31 52.530859 -126.556493 33 5539ft 225kts
07-Jan-18 19:32 52.590081 -126.512574 9 6755ft 269kts
07-Jan-18 19:33 52.653061 -126.572918 306 7824ft 296kts
07-Jan-18 19:34 52.703279 -126.671474 303 9508ft 305kts
07-Jan-18 19:35 52.759889 -126.785189 303 11036ft 334kts
07-Jan-18 19:36 52.823862 -126.895531 312 12875ft 349kts
07-Jan-18 19:37 52.903046 -126.985255 324 14562ft 363kts
07-Jan-18 19:38 52.997529 -127.046644 333 16098ft 375kts
07-Jan-18 19:39 53.095350 -127.105982 327 17517ft 381kts
07-Jan-18 19:40 53.157766 -127.195969 308 18484ft 372kts
07-Jan-18 19:41 53.231795 -127.317372 308 19657ft 378kts
07-Jan-18 19:42 53.307179 -127.440571 308 20967ft 385kts
07-Jan-18 19:43 53.383795 -127.565371 308 22124ft 391kts
07-Jan-18 19:44 53.450759 -127.698417 292 23145ft 381kts
07-Jan-18 19:45 53.502539 -127.848597 292 24049ft 386kts
07-Jan-18 19:46 53.553916 -128.006358 277 24840ft 377kts
07-Jan-18 19:47 53.544723 -128.174783 248 25113ft 366kts
07-Jan-18 19:48 53.488575 -128.314244 229 25118ft 365kts
07-Jan-18 19:49 53.431653 -128.430121 229 25105ft 367kts
07-Jan-18 19:50 53.366302 -128.560486 228 25106ft 369kts
07-Jan-18 19:51 53.302922 -128.685630 227 25204ft 367kts
07-Jan-18 19:52 53.237461 -128.814140 228 25313ft 364kts
07-Jan-18 19:53 53.172196 -128.942499 227 25660ft 369kts
07-Jan-18 19:54 53.106497 -129.071763 227 25656ft 378kts
07-Jan-18 19:55 53.038662 -129.205560 227 25655ft 383kts
07-Jan-18 19:56 53.011104 -129.371320 282 25657ft 422kts
07-Jan-18 19:57 53.067894 -129.547169 291 25573ft 435kts
07-Jan-18 19:58 53.119253 -129.705043 291 25537ft 434kts
07-Jan-18 19:59 53.175953 -129.880732 291 26423ft 423kts
07-Jan-18 20:00 53.246243 -130.038757 324 27194ft 455kts
07-Jan-18 20:01 53.360138 -130.134314 328 28023ft 463kts
07-Jan-18 20:02 53.475899 -130.228622 328 28771ft 466kts
07-Jan-18 20:03 53.592643 -130.324019 328 29410ft 470kts
07-Jan-18 20:04 53.710232 -130.420797 328 29990ft 473kts
07-Jan-18 20:05 53.828244 -130.518507 328 30632ft 476kts
07-Jan-18 20:06 53.947370 -130.617722 328 31227ft 479kts
07-Jan-18 20:07 54.055923 -130.710369 327 31550ft 482kts
07-Jan-18 20:08 54.173662 -130.808810 328 31539ft 475kts
07-Jan-18 20:09 54.290045 -130.907597 328 31531ft 468kts
07-Jan-18 20:10 54.405721 -131.006435 329 31531ft 462kts
07-Jan-18 20:11 54.519834 -131.104413 329 31531ft 458kts
07-Jan-18 20:12 54.632980 -131.202212 329 31550ft 454kts
07-Jan-18 20:13 54.733995 -131.290050 329 31612ft 451kts
07-Jan-18 20:14 54.845346 -131.387447 329 31616ft 449kts
07-Jan-18 20:15 54.956204 -131.485062 329 31617ft 448kts
07-Jan-18 20:16 55.066235 -131.583521 329 31617ft 447kts
07-Jan-18 20:17 55.170893 -131.683193 325 31614ft 444kts
07-Jan-18 20:18 55.277002 -131.792722 325 31614ft 443kts
07-Jan-18 20:19 55.381749 -131.903322 325 31615ft 442kts
07-Jan-18 20:20 55.487233 -132.013790 325 31615ft 442kts
07-Jan-18 20:21 55.592639 -132.123174 326 31615ft 441kts
07-Jan-18 20:22 55.697932 -132.232878 326 31618ft 441kts
07-Jan-18 20:23 55.803386 -132.343391 326 31644ft 440kts
07-Jan-18 20:24 55.904338 -132.450292 323 31643ft 439kts
07-Jan-18 20:25 56.006715 -132.567203 324 31659ft 440kts
07-Jan-18 20:26 56.107086 -132.679279 323 31662ft 440kts
07-Jan-18 20:27 56.210556 -132.794764 324 31667ft 440kts
07-Jan-18 20:28 56.314563 -132.910518 324 31690ft 439kts
07-Jan-18 20:29 56.417923 -133.026688 324 31705ft 439kts
07-Jan-18 20:30 56.520271 -133.145801 322 31706ft 439kts
07-Jan-18 20:31 56.620704 -133.269970 322 31706ft 437kts
07-Jan-18 20:32 56.720574 -133.393260 322 31705ft 434kts
07-Jan-18 20:33 56.817302 -133.521701 308 31696ft 425kts
07-Jan-18 20:34 56.897230 -133.675871 316 31710ft 427kts
07-Jan-18 20:35 56.993668 -133.803047 322 31733ft 428kts
07-Jan-18 20:36 57.092665 -133.922455 323 31760ft 428kts
07-Jan-18 20:37 57.188945 -134.034986 323 31761ft 427kts
07-Jan-18 20:38 57.288123 -134.153983 323 31761ft 426kts
07-Jan-18 20:39 57.386368 -134.272438 324 31760ft 425kts
07-Jan-18 20:40 57.484804 -134.391895 323 31760ft 425kts
07-Jan-18 20:41 57.583129 -134.512003 323 31760ft 424kts
07-Jan-18 20:42 57.681139 -134.632509 323 31760ft 424kts
07-Jan-18 20:43 57.777712 -134.754893 322 31763ft 424kts
07-Jan-18 20:44 57.875434 -134.877397 323 31763ft 424kts
07-Jan-18 20:45 57.973358 -135.000281 323 31771ft 424kts
07-Jan-18 20:46 58.070849 -135.123862 323 31780ft 425kts
07-Jan-18 20:47 58.177309 -135.213083 339 31779ft 430kts
07-Jan-18 20:48 58.291117 -135.281787 347 31768ft 433kts
07-Jan-18 20:49 58.411339 -135.298131 353 31779ft 435kts
07-Jan-18 20:50 58.531941 -135.317326 352 31785ft 436kts
07-Jan-18 20:51 58.652080 -135.337535 352 31784ft 430kts
07-Jan-18 20:52 58.769995 -135.357634 352 31037ft 423kts
07-Jan-18 20:53 58.885615 -135.373400 353 29853ft 415kts
07-Jan-18 20:54 59.000251 -135.394129 352 29042ft 421kts
07-Jan-18 20:55 59.115374 -135.416917 354 28364ft 417kts
07-Jan-18 20:56 59.229593 -135.437234 354 27650ft 412kts
07-Jan-18 20:57 59.342639 -135.431533 11 26970ft 409kts
07-Jan-18 20:58 59.451877 -135.385061 7 25659ft 399kts
07-Jan-18 20:59 59.560133 -135.358464 5 24233ft 389kts
07-Jan-18 21:00 59.666056 -135.336246 5 22877ft 380kts
07-Jan-18 21:01 59.769422 -135.315185 5 21594ft 371kts
07-Jan-18 21:02 59.870985 -135.294495 5 20387ft 364kts
07-Jan-18 21:03 59.970044 -135.274213 5 19252ft 357kts
07-Jan-18 21:04 60.067822 -135.254069 5 18376ft 351kts
07-Jan-18 21:05 60.163816 -135.234281 6 17604ft 346kts
07-Jan-18 21:06 60.243710 -135.217687 6 16980ft 343kts
07-Jan-18 21:07 60.337900 -135.197954 6 16283ft 339kts
07-Jan-18 21:08 60.430856 -135.178374 6 15636ft 336kts
07-Jan-18 21:09 60.523121 -135.158831 6 15033ft 332kts
07-Jan-18 21:10 60.607612 -135.140980 6 14848ft 298kts
07-Jan-18 21:11 60.689182 -135.150690 352 13796ft 295kts
07-Jan-18 21:12 60.769650 -135.172068 355 12723ft 290kts
07-Jan-18 21:13 60.848996 -135.182459 1 11903ft 276kts
07-Jan-18 21:14 60.924180 -135.173864 6 11069ft 269kts
07-Jan-18 21:15 60.990929 -135.125296 62 10207ft 268kts
07-Jan-18 21:16 60.959997 -135.009697 173 9538ft 275kts
07-Jan-18 21:17 60.883866 -135.007731 180 9031ft 272kts
07-Jan-18 21:18 60.809706 -135.007039 180 8996ft 260kts
07-Jan-18 21:19 60.738973 -135.006314 180 8996ft 250kts
07-Jan-18 21:20 60.674287 -134.975212 158 8970ft 233kts
07-Jan-18 21:21 60.619718 -134.918177 174 8920ft 209kts
07-Jan-18 21:22 60.572061 -134.916465 181 8586ft 205kts
07-Jan-18 21:23 60.505924 -134.914750 161 8022ft 200kts
07-Jan-18 21:24 60.461001 -134.862531 117 8017ft 186kts
07-Jan-18 21:25 60.440027 -134.761946 110 8005ft 201kts
07-Jan-18 21:26 60.399437 -134.732060 239 8021ft 194kts
07-Jan-18 21:27 60.405964 -134.815847 292 7948ft 187kts
07-Jan-18 21:28 60.448876 -134.867399 338 7371ft 177kts
07-Jan-18 21:29 60.502914 -134.909177 338 6527ft 182kts
07-Jan-18 21:30 60.541094 -134.938236 339 5681ft 177kts
07-Jan-18 21:31 60.585364 -134.972185 339 4555ft 160kts
07-Jan-18 21:32 60.622836 -135.001004 338 3799ft 133kts
07-Jan-18 21:33 60.656328 -135.026284 339 3223ft 128kts
07-Jan-18 21:34 60.688280 -135.050966 339 2624ft 121kts
07-Jan-18 21:35 60.713658 -135.070496 339 2323ft 31kts
07-Jan-18 21:36 60.717414 -135.073363 330 2323ft 12kts
07-Jan-18 21:37 60.716286 -135.075219 158 2323ft 15kts
07-Jan-18 21:38 60.714606 -135.074751 245 2323ft 1kts
07-Jan-18 21:39 60.714539 -135.075440 270 2323ft 0kts
07-Jan-18 21:40 60.714539 -135.075440 270 2323ft 0kts

Navigation Log

Ident Type
Flight plan parsing failed, navigation log unavailable